Time;durP1;ratioP1;P1;durP2;ratioP2;P2;SDS_P1;SDS_P2;PMS_P1;PMS_P2;Temp;Humidity;BMP_temperature;BMP_pressure;BME280_temperature;BME280_humidity;BME280_pressure;Samples;Min_cycle;Max_cycle;Signal;HPM_P1;HPM_P2
2022/12/28 00:01:15;;;;;;;23.23;10.85;;;-0.80;99.90;;;;;;5008398;28;20034;-64
2022/12/28 00:03:41;;;;;;;26.63;11.82;;;-0.80;99.90;;;;;;5007008;28;20065;-64
2022/12/28 00:06:07;;;;;;;26.10;11.68;;;-0.80;99.90;;;;;;5000029;28;20030;-64
2022/12/28 00:08:32;;;;;;;22.30;10.05;;;-0.80;99.90;;;;;;5006260;28;20482;-65
2022/12/28 00:11:00;;;;;;;22.05;10.70;;;-0.80;99.90;;;;;;5008824;28;20026;-63
2022/12/28 00:13:28;;;;;;;29.00;10.73;;;-0.80;99.90;;;;;;5009920;28;20113;-64
2022/12/28 00:15:53;;;;;;;24.42;10.40;;;-0.80;99.90;;;;;;5008791;28;20045;-64
2022/12/28 00:18:19;;;;;;;28.13;10.20;;;-0.80;99.90;;;;;;5009176;28;20034;-64
2022/12/28 00:20:57;;;;;;;20.92;10.57;;;-0.80;99.90;;;;;;5009917;28;20034;-64
2022/12/28 00:23:24;;;;;;;22.58;10.35;;;-0.80;99.90;;;;;;5013636;28;20125;-64
2022/12/28 00:25:50;;;;;;;21.02;9.90;;;-0.80;99.90;;;;;;5008575;28;20042;-64
2022/12/28 00:28:16;;;;;;;22.92;10.77;;;-0.80;99.90;;;;;;5009290;28;20236;-64
2022/12/28 00:30:41;;;;;;;24.65;10.15;;;-0.90;99.90;;;;;;5008853;28;20120;-64
2022/12/28 00:33:07;;;;;;;24.42;10.15;;;-0.90;99.90;;;;;;5008334;28;20372;-63
2022/12/28 00:35:33;;;;;;;22.05;9.73;;;-0.80;99.90;;;;;;5009095;28;20033;-64
2022/12/28 00:37:58;;;;;;;25.27;10.95;;;-0.80;99.90;;;;;;5019790;28;20095;-64
2022/12/28 00:40:24;;;;;;;24.55;10.40;;;-0.80;99.90;;;;;;5029373;28;20083;-64
2022/12/28 00:42:49;;;;;;;22.67;10.65;;;-0.80;99.90;;;;;;5008955;28;20391;-64
2022/12/28 00:45:15;;;;;;;28.65;12.23;;;-0.80;99.90;;;;;;5009528;28;20137;-63
2022/12/28 00:47:41;;;;;;;30.10;12.95;;;-0.90;99.90;;;;;;5008296;28;20034;-64
2022/12/28 00:50:07;;;;;;;27.38;12.35;;;-0.90;99.90;;;;;;5008884;28;20041;-63
2022/12/28 00:52:32;;;;;;;29.13;11.80;;;-0.90;99.90;;;;;;5007923;28;20084;-63
2022/12/28 00:54:58;;;;;;;26.27;11.60;;;-0.90;99.90;;;;;;5003723;28;20038;-64
2022/12/28 00:57:24;;;;;;;25.95;11.00;;;-0.90;99.90;;;;;;4989980;28;20038;-64
2022/12/28 00:59:50;;;;;;;24.80;11.15;;;-0.90;99.90;;;;;;4988761;28;20368;-65
2022/12/28 01:02:15;;;;;;;24.15;10.65;;;-0.90;99.90;;;;;;4989886;28;20038;-64
2022/12/28 01:04:41;;;;;;;27.08;10.82;;;-0.80;99.90;;;;;;4988660;28;20109;-64
2022/12/28 01:07:06;;;;;;;23.92;10.52;;;-0.90;99.90;;;;;;5007455;28;20045;-64
2022/12/28 01:09:32;;;;;;;26.17;10.95;;;-0.80;99.90;;;;;;5028761;28;20033;-64
2022/12/28 01:11:58;;;;;;;26.60;9.90;;;-0.90;99.90;;;;;;5012683;28;20105;-65
2022/12/28 01:14:24;;;;;;;24.40;9.88;;;-0.90;99.90;;;;;;4989741;28;20037;-62
2022/12/28 01:16:49;;;;;;;22.02;9.35;;;-0.80;99.90;;;;;;5004752;28;20034;-63
2022/12/28 01:19:19;;;;;;;25.10;11.77;;;-0.80;99.90;;;;;;5007742;28;20422;-63
2022/12/28 01:21:48;;;;;;;29.08;11.68;;;-0.80;99.90;;;;;;5013030;28;20083;-63
2022/12/28 01:24:13;;;;;;;25.33;11.40;;;-0.80;99.90;;;;;;5028197;28;20064;-64
2022/12/28 01:26:39;;;;;;;25.15;11.15;;;-0.90;99.90;;;;;;5008676;28;20120;-64
2022/12/28 01:29:05;;;;;;;25.13;11.25;;;-0.90;99.90;;;;;;5009172;28;20088;-64
2022/12/28 01:31:31;;;;;;;20.77;10.45;;;-1.00;99.90;;;;;;4991611;28;20026;-64
2022/12/28 01:33:56;;;;;;;25.95;10.88;;;-1.00;99.90;;;;;;5007906;28;20092;-63
2022/12/28 01:36:28;;;;;;;23.45;10.65;;;-0.90;99.90;;;;;;5010636;28;20026;-64
2022/12/28 01:38:59;;;;;;;26.80;10.88;;;-0.90;99.90;;;;;;5024574;28;20056;-63
2022/12/28 01:41:27;;;;;;;30.23;11.60;;;-0.90;99.90;;;;;;5008230;28;20033;-63
2022/12/28 01:43:52;;;;;;;28.20;10.88;;;-0.80;99.90;;;;;;5007286;28;20033;-64
2022/12/28 01:46:28;;;;;;;23.55;11.48;;;-0.70;99.90;;;;;;5012308;28;20462;-64
2022/12/28 01:49:08;;;;;;;25.38;11.38;;;-0.80;99.90;;;;;;5010798;28;20414;-64
2022/12/28 01:51:47;;;;;;;27.27;10.95;;;-0.70;99.90;;;;;;5014073;28;20386;-62
2022/12/28 01:54:13;;;;;;;22.52;10.57;;;-0.70;99.90;;;;;;4994274;28;20404;-64
2022/12/28 01:56:40;;;;;;;26.23;10.82;;;-0.60;99.90;;;;;;4992427;28;20038;-65
2022/12/28 01:59:05;;;;;;;21.48;10.07;;;-0.60;99.90;;;;;;5009401;28;20546;-64
2022/12/28 02:01:32;;;;;;;23.38;10.98;;;-0.60;99.90;;;;;;5012193;28;20133;-63
2022/12/28 02:03:57;;;;;;;27.08;11.38;;;-0.70;99.90;;;;;;5012091;28;20894;-64
2022/12/28 02:06:23;;;;;;;28.00;10.60;;;-0.70;99.90;;;;;;5007939;28;20030;-64
2022/12/28 02:08:52;;;;;;;21.95;11.05;;;-0.70;99.90;;;;;;5016759;28;20496;-64
2022/12/28 02:11:20;;;;;;;26.97;11.53;;;-0.60;99.90;;;;;;5021142;28;20052;-64
2022/12/28 02:13:48;;;;;;;28.20;11.77;;;-0.60;99.90;;;;;;5011551;28;20022;-63
2022/12/28 02:16:13;;;;;;;26.38;11.20;;;-0.60;99.90;;;;;;5011132;28;20030;-64
2022/12/28 02:18:41;;;;;;;25.25;10.60;;;-0.60;99.90;;;;;;5005907;28;20422;-66
2022/12/28 02:21:31;;;;;;;26.63;11.55;;;-0.50;99.90;;;;;;5009354;28;20030;-64
2022/12/28 02:24:24;;;;;;;29.05;11.73;;;-0.50;99.90;;;;;;5007809;28;20058;-64
2022/12/28 02:26:56;;;;;;;24.98;10.55;;;-0.60;99.90;;;;;;5008135;28;20076;-63
2022/12/28 02:29:58;;;;;;;23.75;10.02;;;-0.60;99.90;;;;;;5000049;28;20037;-64
2022/12/28 02:32:45;;;;;;;20.00;8.52;;;-0.60;99.90;;;;;;5006581;28;20355;-62
2022/12/28 02:35:27;;;;;;;20.30;9.40;;;-0.50;99.90;;;;;;5003320;28;20128;-65
2022/12/28 02:38:05;;;;;;;24.85;10.10;;;-0.40;99.90;;;;;;5022448;28;20030;-63
2022/12/28 02:40:37;;;;;;;24.70;10.40;;;-0.40;99.90;;;;;;5008543;28;20033;-65
2022/12/28 02:43:02;;;;;;;22.42;10.02;;;-0.40;99.90;;;;;;5007729;28;20597;-64
2022/12/28 02:51:23;;;;;;;27.98;10.73;;;-0.30;99.90;;;;;;5010437;28;20075;-63
2022/12/28 02:53:54;;;;;;;;;;;-0.30;99.90;;;;;;5011874;28;20172;-65
2022/12/28 02:56:36;;;;;;;31.33;12.35;;;-0.30;99.90;;;;;;5009707;28;19922;-63
2022/12/28 02:59:20;;;;;;;34.55;13.50;;;-0.40;99.90;;;;;;4997634;28;20040;-63
2022/12/28 03:01:49;;;;;;;36.72;13.95;;;-0.50;99.90;;;;;;5027848;28;20064;-66
2022/12/28 03:04:36;;;;;;;25.20;10.65;;;-0.50;99.90;;;;;;5018909;28;20053;-64
2022/12/28 03:10:43;;;;;;;27.13;10.38;;;-0.50;99.90;;;;;;5010476;28;20510;-64
2022/12/28 03:16:20;;;;;;;21.38;9.48;;;-0.30;99.90;;;;;;5007982;28;20722;-64
2022/12/28 03:32:51;;;;;;;27.77;10.52;;;0.00;99.90;;;;;;5007651;28;20597;-63
2022/12/28 03:35:19;;;;;;;21.65;9.77;;;-0.10;99.90;;;;;;5010378;28;20041;-63
2022/12/28 03:37:55;;;;;;;22.73;9.77;;;-0.20;99.90;;;;;;5009860;28;20037;-65
2022/12/28 03:40:38;;;;;;;21.65;9.82;;;-0.10;99.90;;;;;;4991117;28;20622;-64
2022/12/28 03:46:13;;;;;;;18.80;7.72;;;-0.20;99.90;;;;;;4995558;28;20509;-65
2022/12/28 03:48:40;;;;;;;18.17;7.82;;;-0.20;99.90;;;;;;5009665;28;20045;-65
2022/12/28 03:51:07;;;;;;;18.55;7.68;;;-0.20;99.90;;;;;;5002419;28;20029;-64
2022/12/28 03:53:44;;;;;;;14.90;7.07;;;-0.10;99.90;;;;;;5004818;28;20030;-65
2022/12/28 03:56:19;;;;;;;16.38;6.32;;;0.00;99.90;;;;;;5009089;28;20092;-64
2022/12/28 03:58:46;;;;;;;16.88;6.97;;;0.10;99.90;;;;;;5003289;28;20042;-65
2022/12/28 04:01:12;;;;;;;19.45;8.43;;;0.10;99.90;;;;;;4997743;28;20109;-64
2022/12/28 04:03:38;;;;;;;20.10;8.45;;;0.10;99.90;;;;;;5004945;28;20033;-64
2022/12/28 04:06:04;;;;;;;19.88;7.97;;;0.10;99.90;;;;;;5011616;28;20355;-64
2022/12/28 04:08:30;;;;;;;19.35;8.02;;;0.20;99.90;;;;;;5008532;28;20471;-64
2022/12/28 04:10:59;;;;;;;18.80;7.95;;;0.20;99.90;;;;;;5008071;28;20038;-64
2022/12/28 04:13:27;;;;;;;18.60;9.13;;;0.20;99.90;;;;;;5007349;28;20029;-63
2022/12/28 04:16:05;;;;;;;21.65;9.63;;;0.30;99.90;;;;;;5014810;28;20030;-63
2022/12/28 04:18:32;;;;;;;22.67;10.23;;;0.20;99.90;;;;;;5008007;28;20109;-64
2022/12/28 04:20:58;;;;;;;24.52;11.10;;;0.20;99.90;;;;;;5001532;28;20038;-64
2022/12/28 04:23:23;;;;;;;23.88;10.73;;;0.30;99.90;;;;;;4990824;28;20109;-64
2022/12/28 04:26:04;;;;;;;23.73;10.43;;;0.20;99.90;;;;;;4989289;28;20061;-65
2022/12/28 04:28:31;;;;;;;29.33;10.52;;;0.30;99.90;;;;;;5002249;28;20088;-63
2022/12/28 04:30:58;;;;;;;26.98;10.85;;;0.30;99.90;;;;;;5002201;28;20547;-63
2022/12/28 04:33:24;;;;;;;22.92;10.85;;;0.30;99.90;;;;;;5006428;28;20426;-64
2022/12/28 04:35:49;;;;;;;22.90;10.20;;;0.30;99.90;;;;;;5008081;28;20044;-62
2022/12/28 04:38:15;;;;;;;21.75;10.00;;;0.20;99.90;;;;;;5004604;28;20792;-64
2022/12/28 04:40:41;;;;;;;27.10;10.57;;;0.10;99.90;;;;;;5007640;28;20494;-62
2022/12/28 04:43:07;;;;;;;24.58;11.15;;;0.10;99.90;;;;;;5003437;28;20717;-65
2022/12/28 04:45:32;;;;;;;23.58;11.45;;;0.10;99.90;;;;;;5022013;28;20052;-65
2022/12/28 04:47:58;;;;;;;24.80;10.93;;;0.10;99.90;;;;;;5005173;28;20030;-64
2022/12/28 04:50:25;;;;;;;22.98;11.32;;;0.10;99.90;;;;;;5008250;28;20037;-63
2022/12/28 04:52:50;;;;;;;22.35;10.52;;;0.00;99.90;;;;;;4994640;28;20091;-65
2022/12/28 04:55:16;;;;;;;24.00;10.57;;;0.10;99.90;;;;;;5008798;28;20474;-64
2022/12/28 04:57:46;;;;;;;21.98;10.60;;;0.00;99.90;;;;;;5006666;28;20080;-64
2022/12/28 05:00:13;;;;;;;28.45;11.25;;;0.10;99.90;;;;;;5024806;28;20014;-64
2022/12/28 05:02:39;;;;;;;21.67;10.50;;;0.10;99.90;;;;;;5008351;28;20064;-65
2022/12/28 05:05:05;;;;;;;26.02;11.45;;;0.20;99.90;;;;;;5006927;28;20052;-63
2022/12/28 05:07:31;;;;;;;32.33;13.35;;;0.20;99.90;;;;;;5008904;28;20071;-64
2022/12/28 05:09:57;;;;;;;31.60;12.82;;;0.30;99.90;;;;;;5007894;28;20057;-63
2022/12/28 05:12:23;;;;;;;31.05;12.82;;;0.40;99.90;;;;;;5008540;28;20040;-63
2022/12/28 05:14:48;;;;;;;30.00;13.38;;;0.40;99.90;;;;;;4995583;28;20041;-67
2022/12/28 05:17:14;;;;;;;28.67;12.75;;;0.40;99.90;;;;;;4988852;28;20022;-64
2022/12/28 05:19:40;;;;;;;22.88;10.75;;;0.50;99.90;;;;;;5005603;28;20062;-64
2022/12/28 05:22:10;;;;;;;22.75;9.90;;;0.60;99.90;;;;;;5008100;28;20456;-64
2022/12/28 05:24:37;;;;;;;20.92;10.20;;;0.60;99.90;;;;;;5007117;28;20120;-63
2022/12/28 05:27:03;;;;;;;25.00;10.70;;;0.60;99.90;;;;;;4987898;28;20037;-65
2022/12/28 05:29:28;;;;;;;26.40;10.75;;;0.50;99.90;;;;;;4991279;28;20026;-64
2022/12/28 05:31:54;;;;;;;20.25;9.88;;;0.50;99.90;;;;;;5003502;28;20482;-66
2022/12/28 05:34:19;;;;;;;24.88;10.95;;;0.50;99.90;;;;;;4993215;28;20038;-64
2022/12/28 05:36:45;;;;;;;26.80;10.30;;;0.50;99.90;;;;;;5005293;28;20030;-64
2022/12/28 05:39:11;;;;;;;22.75;10.32;;;0.40;99.90;;;;;;5004172;28;20636;-64
2022/12/28 05:41:36;;;;;;;22.50;10.52;;;0.40;99.90;;;;;;5007375;28;20116;-66
2022/12/28 05:44:02;;;;;;;21.10;9.55;;;0.40;99.90;;;;;;5005149;28;20673;-64
2022/12/28 05:46:30;;;;;;;22.50;10.05;;;0.30;99.90;;;;;;5004572;28;20538;-63
2022/12/28 05:48:56;;;;;;;23.08;10.15;;;0.40;99.90;;;;;;4992527;28;20157;-63
2022/12/28 05:51:25;;;;;;;25.52;10.45;;;0.40;99.90;;;;;;5000072;28;20034;-64
2022/12/28 05:53:51;;;;;;;27.05;11.10;;;0.40;99.90;;;;;;5001318;28;20382;-64
2022/12/28 05:56:28;;;;;;;26.38;11.00;;;0.30;99.90;;;;;;5001833;28;20038;-64
2022/12/28 05:58:56;;;;;;;24.38;10.25;;;0.30;99.90;;;;;;5009274;28;20030;-67
2022/12/28 06:01:24;;;;;;;25.58;11.15;;;0.40;99.90;;;;;;4995859;28;20034;-64
2022/12/28 06:04:01;;;;;;;23.52;10.18;;;0.50;99.90;;;;;;4988315;28;20147;-65
2022/12/28 06:06:28;;;;;;;21.98;9.43;;;0.50;99.90;;;;;;4999027;28;20132;-64
2022/12/28 06:08:54;;;;;;;21.17;8.35;;;0.60;99.90;;;;;;4996616;28;20034;-65
2022/12/28 06:11:22;;;;;;;18.00;7.90;;;0.70;99.90;;;;;;5005129;28;20100;-65
2022/12/28 06:13:48;;;;;;;20.00;9.25;;;0.70;99.90;;;;;;5007749;28;20042;-64
2022/12/28 06:16:16;;;;;;;20.13;8.52;;;0.80;99.90;;;;;;5007726;28;20055;-65
2022/12/28 06:18:44;;;;;;;19.55;8.02;;;0.80;99.90;;;;;;4997818;28;20034;-64
2022/12/28 06:21:09;;;;;;;17.25;7.88;;;0.80;99.90;;;;;;4988069;28;20038;-63
2022/12/28 06:23:35;;;;;;;17.63;7.13;;;0.90;99.90;;;;;;4998889;28;20057;-62
2022/12/28 06:26:03;;;;;;;17.48;7.70;;;0.90;99.90;;;;;;5004369;28;20037;-64
2022/12/28 06:28:28;;;;;;;13.27;7.18;;;0.90;99.90;;;;;;5006155;28;20117;-64
2022/12/28 06:31:12;;;;;;;17.73;7.82;;;0.90;99.90;;;;;;5007238;28;20125;-64
2022/12/28 06:33:37;;;;;;;15.88;7.50;;;0.90;99.90;;;;;;5014885;28;20060;-65
2022/12/28 06:36:04;;;;;;;16.15;7.30;;;0.90;99.90;;;;;;5009325;28;20034;-64
2022/12/28 06:38:33;;;;;;;16.77;7.55;;;0.90;99.90;;;;;;5011849;28;20110;-64
2022/12/28 06:41:06;;;;;;;15.30;7.72;;;0.90;99.90;;;;;;5008931;28;20037;-64
2022/12/28 06:43:36;;;;;;;17.70;8.10;;;0.90;99.90;;;;;;5008539;28;20470;-64
2022/12/28 06:46:03;;;;;;;17.40;7.65;;;0.90;99.90;;;;;;5008359;28;20049;-65
2022/12/28 06:48:29;;;;;;;18.65;7.90;;;1.00;99.90;;;;;;5003188;28;20483;-63
2022/12/28 06:51:00;;;;;;;17.17;7.53;;;1.00;99.90;;;;;;4997055;28;20026;-64
2022/12/28 06:53:29;;;;;;;17.30;8.05;;;1.00;99.90;;;;;;5011028;28;20101;-64
2022/12/28 06:55:56;;;;;;;18.15;8.98;;;1.00;99.90;;;;;;5011343;28;20155;-66
2022/12/28 06:58:23;;;;;;;19.45;9.50;;;1.00;99.90;;;;;;5003607;28;20046;-64
2022/12/28 07:00:50;;;;;;;20.70;9.00;;;1.10;99.90;;;;;;4992012;28;20046;-64
2022/12/28 07:03:15;;;;;;;19.50;9.05;;;1.10;99.90;;;;;;5002610;28;20034;-64
2022/12/28 07:05:41;;;;;;;20.08;8.70;;;1.10;99.90;;;;;;5003083;28;20720;-64
2022/12/28 07:08:07;;;;;;;19.55;9.00;;;1.10;99.90;;;;;;5003777;28;20105;-64
2022/12/28 07:10:33;;;;;;;22.58;9.02;;;1.10;99.90;;;;;;5010901;28;20025;-64
2022/12/28 07:12:59;;;;;;;20.52;9.00;;;1.10;99.90;;;;;;5015788;28;20037;-65
2022/12/28 07:15:24;;;;;;;17.83;8.20;;;1.00;99.90;;;;;;5007050;28;20042;-65
2022/12/28 07:17:50;;;;;;;20.35;8.65;;;1.00;99.90;;;;;;4991374;28;20037;-64
2022/12/28 07:20:16;;;;;;;19.30;7.95;;;1.00;99.90;;;;;;4994825;28;20022;-65
2022/12/28 07:22:42;;;;;;;17.92;8.02;;;1.10;99.90;;;;;;4993075;28;20261;-65
2022/12/28 07:25:08;;;;;;;16.00;7.82;;;1.10;99.90;;;;;;5000225;28;20046;-65
2022/12/28 07:27:34;;;;;;;15.82;7.57;;;1.20;99.90;;;;;;5003744;28;20133;-64
2022/12/28 07:30:00;;;;;;;15.77;7.40;;;1.20;99.90;;;;;;5017335;28;20525;-64
2022/12/28 07:32:26;;;;;;;16.50;7.65;;;1.30;99.90;;;;;;4999621;28;20708;-65
2022/12/28 07:34:52;;;;;;;16.67;8.00;;;1.30;99.90;;;;;;5009186;28;20040;-64
2022/12/28 07:37:17;;;;;;;13.63;5.75;;;1.30;99.90;;;;;;5010352;28;20682;-64
2022/12/28 07:39:43;;;;;;;12.07;5.50;;;1.30;99.90;;;;;;4995072;28;20467;-65
2022/12/28 07:42:10;;;;;;;9.25;4.93;;;1.40;99.90;;;;;;5007786;28;20068;-65
2022/12/28 07:44:37;;;;;;;11.00;4.95;;;1.60;99.90;;;;;;5010264;28;20018;-64
2022/12/28 07:47:02;;;;;;;11.18;4.60;;;1.60;99.90;;;;;;5009709;28;20108;-66
2022/12/28 07:49:28;;;;;;;9.10;4.47;;;1.70;99.90;;;;;;4992747;28;20140;-64
2022/12/28 07:51:54;;;;;;;10.68;4.63;;;1.80;99.90;;;;;;5008122;28;20474;-65
2022/12/28 07:54:19;;;;;;;7.72;3.05;;;1.80;99.90;;;;;;5002401;28;20037;-65
2022/12/28 07:56:45;;;;;;;13.40;5.47;;;1.90;99.90;;;;;;5010389;28;20089;-65
2022/12/28 07:59:13;;;;;;;15.35;6.32;;;2.00;99.90;;;;;;4997081;28;20037;-65
2022/12/28 08:01:39;;;;;;;22.55;9.20;;;2.00;99.90;;;;;;4990371;28;20034;-66
2022/12/28 08:04:11;;;;;;;19.38;8.63;;;1.90;99.90;;;;;;5007228;28;20037;-64
2022/12/28 08:06:40;;;;;;;18.98;8.90;;;1.70;99.90;;;;;;5009829;28;20029;-63
2022/12/28 08:09:07;;;;;;;16.13;8.02;;;1.60;99.90;;;;;;4994459;28;20039;-65
2022/12/28 08:11:35;;;;;;;29.67;10.98;;;1.60;99.90;;;;;;4992055;28;20030;-65
2022/12/28 08:14:01;;;;;;;24.08;10.95;;;1.70;99.90;;;;;;5008058;28;20116;-66
2022/12/28 08:16:31;;;;;;;29.17;12.00;;;1.70;99.90;;;;;;5004576;28;20025;-65
2022/12/28 08:18:57;;;;;;;24.40;11.40;;;1.60;99.90;;;;;;5024706;28;20037;-65
2022/12/28 08:21:29;;;;;;;31.95;14.75;;;1.50;99.90;;;;;;5008235;28;20034;-65
2022/12/28 08:23:55;;;;;;;34.65;15.23;;;1.50;99.90;;;;;;5009699;28;20053;-65
2022/12/28 08:26:24;;;;;;;32.13;14.70;;;1.50;99.90;;;;;;4998162;28;20491;-65
2022/12/28 08:28:52;;;;;;;32.10;13.75;;;1.40;99.90;;;;;;5009683;28;20029;-65
2022/12/28 08:31:26;;;;;;;25.92;13.10;;;1.50;99.90;;;;;;5006876;28;20057;-65
2022/12/28 08:33:53;;;;;;;24.58;11.75;;;1.60;99.90;;;;;;5022171;28;20029;-65
2022/12/28 08:36:20;;;;;;;25.67;11.88;;;1.70;99.90;;;;;;5007608;28;20506;-65
2022/12/28 08:38:49;;;;;;;33.22;14.18;;;1.80;99.90;;;;;;5003424;28;20033;-64
2022/12/28 08:41:17;;;;;;;29.70;14.02;;;2.00;99.90;;;;;;4995346;28;20403;-66
2022/12/28 08:43:44;;;;;;;29.63;14.30;;;2.10;99.90;;;;;;4991978;28;20375;-62
2022/12/28 08:46:12;;;;;;;27.38;11.95;;;2.10;99.90;;;;;;5002242;28;20041;-65
2022/12/28 08:48:39;;;;;;;27.13;13.18;;;2.30;99.90;;;;;;5005952;28;20443;-62
2022/12/28 08:51:08;;;;;;;34.20;15.82;;;2.40;99.90;;;;;;5002235;28;20027;-63
2022/12/28 08:53:34;;;;;;;32.63;15.68;;;2.50;99.90;;;;;;4989810;28;20030;-64
2022/12/28 08:56:11;;;;;;;30.40;14.95;;;2.40;99.90;;;;;;4990174;28;20042;-64
2022/12/28 08:58:38;;;;;;;19.70;8.23;;;2.30;99.90;;;;;;4989681;28;20061;-65
2022/12/28 09:01:10;;;;;;;11.82;5.15;;;2.50;99.90;;;;;;4992300;28;20033;-66
2022/12/28 09:03:37;;;;;;;21.63;10.63;;;2.90;99.90;;;;;;4995423;28;20479;-65
2022/12/28 09:06:08;;;;;;;9.52;4.05;;;3.10;99.90;;;;;;4989748;28;20026;-67
2022/12/28 09:08:35;;;;;;;16.80;7.80;;;3.30;99.90;;;;;;4989677;28;20045;-63
2022/12/28 09:11:03;;;;;;;13.52;5.30;;;3.50;99.90;;;;;;5008855;28;20033;-65
2022/12/28 09:13:28;;;;;;;13.77;5.50;;;3.70;99.90;;;;;;5017621;28;20053;-64
2022/12/28 09:16:07;;;;;;;35.42;16.70;;;3.90;99.90;;;;;;5000147;28;20037;-64
2022/12/28 09:18:34;;;;;;;25.65;11.32;;;3.90;99.90;;;;;;5007659;28;20021;-63
2022/12/28 09:21:15;;;;;;;13.18;6.65;;;3.80;99.90;;;;;;5003408;28;20038;-64
2022/12/28 09:23:41;;;;;;;;;;;3.90;99.90;;;;;;4996705;28;20104;-64
2022/12/28 09:26:22;;;;;;;11.63;5.15;;;4.10;99.90;;;;;;5005966;28;19930;-65
2022/12/28 09:28:49;;;;;;;6.53;2.72;;;4.30;99.90;;;;;;5008849;28;20030;-64
2022/12/28 09:31:16;;;;;;;11.80;4.88;;;4.60;99.90;;;;;;5004506;28;20026;-64
2022/12/28 09:34:00;;;;;;;8.88;4.38;;;4.80;99.90;;;;;;4988625;28;20100;-64
2022/12/28 09:36:33;;;;;;;7.70;3.20;;;4.90;99.90;;;;;;4984177;28;20354;-64
2022/12/28 09:39:03;;;;;;;7.18;2.78;;;5.10;99.90;;;;;;4989835;28;20061;-66
2022/12/28 09:41:48;;;;;;;10.45;4.90;;;5.20;99.90;;;;;;5005632;28;20467;-64
2022/12/28 09:44:38;;;;;;;7.72;2.60;;;5.40;99.90;;;;;;5005491;28;20109;-64
2022/12/28 09:47:07;;;;;;;8.03;3.90;;;5.40;99.90;;;;;;5008301;28;20042;-67
2022/12/28 09:50:15;;;;;;;13.55;4.82;;;5.50;99.90;;;;;;5007457;28;20026;-65
2022/12/28 09:53:06;;;;;;;8.25;3.65;;;5.40;99.90;;;;;;4988799;28;20407;-64
2022/12/28 09:55:37;;;;;;;12.27;4.60;;;5.40;99.90;;;;;;5005949;28;20581;-65
2022/12/28 09:58:09;;;;;;;11.38;5.43;;;5.50;99.90;;;;;;5007755;28;20544;-66
2022/12/28 10:00:44;;;;;;;8.73;3.70;;;5.50;99.90;;;;;;5002488;28;20033;-64
2022/12/28 10:03:19;;;;;;;9.20;4.00;;;5.60;99.90;;;;;;5007322;28;20026;-65
2022/12/28 10:05:45;;;;;;;6.55;3.42;;;5.70;99.90;;;;;;5002305;28;20034;-65
2022/12/28 10:08:14;;;;;;;9.40;3.47;;;5.90;99.90;;;;;;5000541;28;20065;-64
2022/12/28 10:10:41;;;;;;;7.10;3.25;;;6.00;99.90;;;;;;5008391;28;20378;-65
2022/12/28 10:13:20;;;;;;;6.05;3.40;;;6.10;99.90;;;;;;5013770;28;20093;-64
2022/12/28 10:15:47;;;;;;;7.90;2.33;;;6.20;99.90;;;;;;4992840;28;20034;-64
2022/12/28 10:18:14;;;;;;;5.07;2.08;;;6.30;99.90;;;;;;5005774;28;20602;-63
2022/12/28 10:20:42;;;;;;;5.32;2.40;;;6.60;99.90;;;;;;5000762;28;20090;-65
2022/12/28 10:23:15;;;;;;;6.20;2.65;;;6.90;99.90;;;;;;5007451;28;20454;-65
2022/12/28 10:25:40;;;;;;;3.92;1.90;;;6.90;99.90;;;;;;5007571;28;20104;-65
2022/12/28 10:28:08;;;;;;;4.18;2.00;;;7.00;99.90;;;;;;5016071;28;20746;-65
2022/12/28 10:30:44;;;;;;;7.45;1.95;;;7.00;99.90;;;;;;4992187;28;20042;-65
2022/12/28 10:33:18;;;;;;;4.95;2.22;;;7.20;99.90;;;;;;4991113;28;20065;-64
2022/12/28 10:35:53;;;;;;;5.85;2.67;;;7.50;99.90;;;;;;5011184;28;20057;-63
2022/12/28 10:38:29;;;;;;;4.88;2.25;;;7.60;99.90;;;;;;5009379;28;20033;-64
2022/12/28 10:41:11;;;;;;;7.43;2.30;;;7.70;99.90;;;;;;4996375;28;20038;-65
2022/12/28 10:43:40;;;;;;;7.75;2.40;;;7.70;99.90;;;;;;4999004;28;20041;-63
2022/12/28 10:46:13;;;;;;;4.50;1.70;;;7.80;99.90;;;;;;5011638;28;20048;-66
2022/12/28 10:48:42;;;;;;;3.55;1.45;;;7.90;99.90;;;;;;5002316;28;20218;-64
2022/12/28 10:51:17;;;;;;;4.72;1.90;;;8.00;99.90;;;;;;4991551;28;20033;-67
2022/12/28 10:53:48;;;;;;;4.22;1.55;;;8.20;99.90;;;;;;4992477;28;20065;-66
2022/12/28 10:56:19;;;;;;;4.18;1.50;;;8.30;99.90;;;;;;4995520;28;20510;-64
2022/12/28 10:58:48;;;;;;;5.15;1.15;;;8.40;99.90;;;;;;5008138;28;21037;-65
2022/12/28 11:01:13;;;;;;;2.65;1.13;;;8.50;99.90;;;;;;4995716;28;20038;-63
2022/12/28 11:03:41;;;;;;;2.40;1.15;;;8.50;99.90;;;;;;5006988;28;20048;-65
2022/12/28 11:06:18;;;;;;;4.45;1.58;;;8.60;99.90;;;;;;5008891;28;20025;-65
2022/12/28 11:08:46;;;;;;;2.80;1.10;;;8.60;99.90;;;;;;5004394;28;20044;-64
2022/12/28 11:11:21;;;;;;;4.40;1.27;;;8.70;99.90;;;;;;4990677;28;20022;-62
2022/12/28 11:14:13;;;;;;;4.15;1.60;;;8.70;99.90;;;;;;4996734;28;20122;-63
2022/12/28 11:16:40;;;;;;;3.55;1.52;;;8.70;99.90;;;;;;4995859;28;20048;-65
2022/12/28 11:19:06;;;;;;;4.15;1.17;;;8.70;99.90;;;;;;5009277;28;20038;-63
2022/12/28 11:21:33;;;;;;;8.02;1.63;;;8.80;99.90;;;;;;5007169;28;20030;-65
2022/12/28 11:23:59;;;;;;;3.33;1.38;;;8.90;99.90;;;;;;5001922;28;20142;-65
2022/12/28 11:26:27;;;;;;;3.03;1.38;;;9.00;99.90;;;;;;4999322;28;20070;-65
2022/12/28 11:28:53;;;;;;;4.32;1.50;;;8.90;99.90;;;;;;5004485;28;20058;-64
2022/12/28 11:31:29;;;;;;;3.92;1.65;;;8.70;99.90;;;;;;5004183;28;20565;-64
2022/12/28 11:33:58;;;;;;;2.97;1.52;;;8.80;99.90;;;;;;4990422;28;20034;-66
2022/12/28 11:36:26;;;;;;;4.87;1.97;;;9.10;99.90;;;;;;5009352;28;20588;-65
2022/12/28 11:38:55;;;;;;;4.03;1.33;;;9.30;99.90;;;;;;5008806;28;20092;-66
2022/12/28 11:41:23;;;;;;;4.22;1.60;;;9.30;99.90;;;;;;4998190;28;20113;-66
2022/12/28 11:43:57;;;;;;;4.82;1.50;;;9.30;99.90;;;;;;5009305;28;20080;-67
2022/12/28 11:46:23;;;;;;;4.30;1.75;;;9.50;99.90;;;;;;5007271;28;20048;-64
2022/12/28 11:49:02;;;;;;;4.38;1.70;;;9.30;99.90;;;;;;4989135;28;20105;-66
2022/12/28 11:51:31;;;;;;;7.22;1.88;;;9.30;99.90;;;;;;4995074;28;20026;-66
2022/12/28 11:54:01;;;;;;;4.72;1.65;;;9.30;99.90;;;;;;4996818;28;20038;-65
2022/12/28 11:56:48;;;;;;;5.45;1.80;;;9.20;99.90;;;;;;4989786;28;20469;-66
2022/12/28 11:59:28;;;;;;;4.57;1.55;;;9.20;99.90;;;;;;4989454;28;20432;-68
2022/12/28 12:01:57;;;;;;;6.35;1.90;;;9.00;99.90;;;;;;5006909;28;20038;-64
2022/12/28 12:04:36;;;;;;;3.72;1.60;;;9.00;99.90;;;;;;5007707;28;20042;-64
2022/12/28 12:07:01;;;;;;;3.38;1.40;;;9.00;99.90;;;;;;5007996;28;20042;-66
2022/12/28 12:09:32;;;;;;;10.32;1.80;;;9.00;99.90;;;;;;5006385;28;20028;-66
2022/12/28 12:12:22;;;;;;;5.30;1.90;;;8.90;99.90;;;;;;4990725;28;20077;-66
2022/12/28 12:14:50;;;;;;;3.35;1.48;;;8.90;99.90;;;;;;4993426;28;20105;-64
2022/12/28 12:17:23;;;;;;;4.63;1.80;;;9.10;99.90;;;;;;4992319;28;20111;-66
2022/12/28 12:19:59;;;;;;;3.17;1.20;;;9.60;99.90;;;;;;4990676;28;20106;-65
2022/12/28 12:22:40;;;;;;;4.82;1.60;;;9.80;99.90;;;;;;4988611;28;20038;-66
2022/12/28 12:25:15;;;;;;;2.58;1.27;;;10.00;99.90;;;;;;4990395;28;20038;-66
2022/12/28 12:27:49;;;;;;;4.07;1.65;;;9.90;99.90;;;;;;5007623;28;20022;-66
2022/12/28 12:30:18;;;;;;;4.22;1.40;;;10.00;99.90;;;;;;5008395;28;20445;-68
2022/12/28 12:33:16;;;;;;;4.32;1.58;;;9.90;99.90;;;;;;5009903;28;20060;-67
2022/12/28 12:35:57;;;;;;;3.15;1.52;;;9.60;99.90;;;;;;5009171;28;20487;-64
2022/12/28 12:39:07;;;;;;;6.43;1.55;;;9.40;99.90;;;;;;5009246;28;20029;-66
2022/12/28 12:41:48;;;;;;;2.78;1.38;;;9.40;99.90;;;;;;5008859;28;20127;-66
2022/12/28 12:44:29;;;;;;;3.63;1.67;;;9.50;99.90;;;;;;5008329;28;20037;-68
2022/12/28 12:47:09;;;;;;;4.07;1.85;;;9.50;99.90;;;;;;5041089;28;20073;-66
2022/12/28 12:49:56;;;;;;;4.15;1.33;;;9.40;99.90;;;;;;5008786;28;20036;-65
2022/12/28 12:52:37;;;;;;;4.95;1.35;;;9.20;99.90;;;;;;5007841;28;20034;-65
2022/12/28 12:55:22;;;;;;;4.25;1.10;;;9.20;99.90;;;;;;5008167;28;20084;-66
2022/12/28 12:58:12;;;;;;;4.45;1.13;;;9.20;99.90;;;;;;5009443;28;20033;-65
2022/12/28 13:00:45;;;;;;;1.52;0.82;;;9.30;99.90;;;;;;5007717;28;20052;-64
2022/12/28 13:03:40;;;;;;;5.28;1.10;;;9.60;99.90;;;;;;5009339;28;20116;-65
2022/12/28 13:06:07;;;;;;;2.17;1.17;;;9.70;99.90;;;;;;5008409;28;20380;-65
2022/12/28 13:08:39;;;;;;;2.72;1.00;;;9.80;99.90;;;;;;5002158;28;20026;-66
2022/12/28 13:11:08;;;;;;;2.78;1.08;;;9.60;99.90;;;;;;4996105;28;20042;-67
2022/12/28 13:13:37;;;;;;;2.55;1.15;;;9.40;99.90;;;;;;5000398;28;20076;-63
2022/12/28 13:16:08;;;;;;;3.70;1.20;;;9.60;99.90;;;;;;4989037;28;20506;-64
2022/12/28 13:18:34;;;;;;;3.58;0.93;;;9.90;99.90;;;;;;5003077;28;20901;-65
2022/12/28 13:21:01;;;;;;;4.68;1.30;;;10.00;99.90;;;;;;5005131;28;20026;-64
2022/12/28 13:23:30;;;;;;;6.43;1.13;;;9.80;99.90;;;;;;4994238;28;20038;-64
2022/12/28 13:25:59;;;;;;;3.20;1.25;;;9.50;99.90;;;;;;4989110;28;20392;-65
2022/12/28 13:28:34;;;;;;;5.30;1.30;;;9.40;99.90;;;;;;4995351;28;20121;-66